Chicago, Illinois
Traffic Map
Current Weather Conditions
Chicago, Illinois
Broken Clouds
Broken Clouds
29°
Feels Like: 32°
Wind Chill: 29° Ceiling: 25000
Heat Index: 32° Visibility: 10mi
Dew Point: 22° Wind: 13mph
Humidity: 63% Direction: 270° (W)
Pressure: 29.93in Gusts: 0mph
Raw Report DataKMDW 242253Z 27011KT 10SM FEW030 FEW180 BKN250 29/22 A2993 RMK AO2 SLP123 T02940217
Traffic Incident Summary
Active as of:
Severity:
Category:
InformationThere was an issue retrieving the traffic information for this location. Please try a different location or try again shortly.
Advertisements
Track Severe Weather on mobile